Time;durP1;ratioP1;P1;durP2;ratioP2;P2;SDS_P1;SDS_P2;PMS_P1;PMS_P2;Temp;Humidity;BMP_temperature;BMP_pressure;BME280_temperature;BME280_humidity;BME280_pressure;Samples;Min_cycle;Max_cycle;Signal;HPM_P1;HPM_P2
2022/07/14 00:01:23;;;;;;;4.20;1.10;;;18.00;81.00;;;;;;5067997;28;20472;-62
2022/07/14 00:03:49;;;;;;;5.95;1.08;;;18.00;81.20;;;;;;5067351;28;20393;-62
2022/07/14 00:06:15;;;;;;;5.07;0.75;;;18.00;81.40;;;;;;5064226;28;20078;-62
2022/07/14 00:08:43;;;;;;;4.32;1.10;;;18.00;81.60;;;;;;5067678;28;20507;-62
2022/07/14 00:11:09;;;;;;;3.22;0.88;;;17.90;81.70;;;;;;5067852;28;20017;-62
2022/07/14 00:13:34;;;;;;;3.15;0.70;;;17.80;82.10;;;;;;5068850;28;20476;-62
2022/07/14 00:16:00;;;;;;;1.65;0.40;;;17.70;82.40;;;;;;5065000;28;20031;-62
2022/07/14 00:18:26;;;;;;;1.42;0.40;;;17.60;82.80;;;;;;5066285;28;20507;-61
2022/07/14 00:20:52;;;;;;;3.85;0.50;;;17.60;83.30;;;;;;5070311;28;20016;-62
2022/07/14 00:23:21;;;;;;;2.97;0.55;;;17.50;83.50;;;;;;5068864;28;20478;-62
2022/07/14 00:25:46;;;;;;;2.10;0.63;;;17.50;83.50;;;;;;5069706;28;20024;-62
2022/07/14 00:28:12;;;;;;;5.70;0.80;;;17.50;83.60;;;;;;5066872;28;20035;-62
2022/07/14 00:30:37;;;;;;;2.88;1.10;;;17.50;83.70;;;;;;5068321;28;20047;-62
2022/07/14 00:33:03;;;;;;;4.85;0.73;;;17.60;83.80;;;;;;5067610;28;20071;-62
2022/07/14 00:35:29;;;;;;;4.07;0.70;;;17.60;83.70;;;;;;5066992;28;20043;-62
2022/07/14 00:37:54;;;;;;;2.17;0.55;;;17.50;84.20;;;;;;5064816;28;20509;-62
2022/07/14 00:40:20;;;;;;;3.03;0.90;;;17.30;84.60;;;;;;5066771;28;20032;-62
2022/07/14 00:42:47;;;;;;;2.53;0.50;;;17.20;85.10;;;;;;5067959;28;20335;-62
2022/07/14 00:45:15;;;;;;;2.22;0.40;;;17.10;85.60;;;;;;5066669;28;20031;-61
2022/07/14 00:47:42;;;;;;;2.90;0.68;;;17.10;86.00;;;;;;5066646;28;20468;-62
2022/07/14 00:50:09;;;;;;;4.32;0.85;;;17.10;86.30;;;;;;5066934;28;20071;-62
2022/07/14 00:52:35;;;;;;;3.47;1.00;;;17.00;86.50;;;;;;5064716;28;20021;-61
2022/07/14 00:55:00;;;;;;;4.40;0.60;;;17.00;86.60;;;;;;5067185;28;20049;-62
2022/07/14 00:57:26;;;;;;;3.47;0.80;;;17.10;86.60;;;;;;5066641;28;20087;-62
2022/07/14 00:59:53;;;;;;;3.73;0.70;;;17.00;86.50;;;;;;5066817;28;20090;-62
2022/07/14 01:02:20;;;;;;;5.05;0.90;;;17.00;86.60;;;;;;5063826;28;20035;-62
2022/07/14 01:04:47;;;;;;;6.60;1.08;;;17.00;86.70;;;;;;5065197;28;20021;-62
2022/07/14 01:07:13;;;;;;;5.10;1.02;;;17.00;86.80;;;;;;5065600;28;20388;-62
2022/07/14 01:09:40;;;;;;;3.78;1.20;;;17.00;86.90;;;;;;5066883;28;20396;-62
2022/07/14 01:12:06;;;;;;;4.03;1.45;;;17.00;87.00;;;;;;5064382;28;20048;-62
2022/07/14 01:14:31;;;;;;;5.75;1.00;;;17.10;87.20;;;;;;5067963;28;20440;-62
2022/07/14 01:16:57;;;;;;;4.75;1.27;;;17.00;87.30;;;;;;5064744;28;20043;-62
2022/07/14 01:19:24;;;;;;;4.45;1.05;;;17.00;87.60;;;;;;5070161;28;20529;-62
2022/07/14 01:21:54;;;;;;;4.75;0.80;;;17.00;87.80;;;;;;5069816;28;20170;-62
2022/07/14 01:24:20;;;;;;;5.15;1.20;;;17.00;87.80;;;;;;5071913;28;20704;-62
2022/07/14 01:26:46;;;;;;;5.88;1.20;;;17.00;88.00;;;;;;5070619;28;20016;-62
2022/07/14 01:29:12;;;;;;;6.32;1.40;;;17.00;88.30;;;;;;5069626;28;20487;-62
2022/07/14 01:31:38;;;;;;;4.35;1.00;;;17.00;88.40;;;;;;5070428;28;20533;-62
2022/07/14 01:34:03;;;;;;;5.35;1.13;;;17.00;88.40;;;;;;5070515;28;20033;-62
2022/07/14 01:36:29;;;;;;;4.13;0.80;;;17.00;88.50;;;;;;5070591;28;20544;-62
2022/07/14 01:38:54;;;;;;;6.55;1.02;;;17.00;88.50;;;;;;5068525;28;20396;-62
2022/07/14 01:41:21;;;;;;;4.10;1.00;;;17.00;88.50;;;;;;5068308;28;20040;-62
2022/07/14 01:43:47;;;;;;;4.57;0.88;;;17.00;88.60;;;;;;5071075;28;20017;-62
2022/07/14 01:46:13;;;;;;;4.45;1.10;;;17.00;88.80;;;;;;5070310;28;20031;-61
2022/07/14 01:48:39;;;;;;;3.60;0.70;;;17.00;88.80;;;;;;5067798;28;20388;-62
2022/07/14 01:51:04;;;;;;;5.95;1.30;;;17.00;88.90;;;;;;5084011;28;20044;-61
2022/07/14 01:53:30;;;;;;;4.03;1.00;;;17.00;89.00;;;;;;5067796;28;20098;-62
2022/07/14 01:55:57;;;;;;;4.28;0.75;;;16.90;89.00;;;;;;5069810;28;20139;-62
2022/07/14 01:58:22;;;;;;;3.38;0.90;;;16.90;89.10;;;;;;5069052;28;20020;-62
2022/07/14 02:01:39;;;;;;;3.03;1.20;;;17.00;89.20;;;;;;5071083;28;20025;-62
2022/07/14 02:03:33;;;;;;;3.65;0.80;;;16.90;89.30;;;;;;5068327;28;20082;-62
2022/07/14 02:06:00;;;;;;;4.32;1.02;;;16.90;89.50;;;;;;5070685;28;20807;-61
2022/07/14 02:08:26;;;;;;;4.50;1.08;;;16.80;89.50;;;;;;5069615;28;20485;-62
2022/07/14 02:13:35;;;;;;;4.10;1.75;;;16.70;89.90;;;;;;5068889;28;20077;-61
2022/07/14 02:16:01;;;;;;;4.03;1.75;;;16.70;90.00;;;;;;5069038;28;20024;-62
2022/07/14 02:18:27;;;;;;;4.55;0.93;;;16.70;90.00;;;;;;5068976;28;20020;-62
2022/07/14 02:20:52;;;;;;;3.95;1.05;;;16.50;90.10;;;;;;5066943;28;20036;-62
2022/07/14 02:23:18;;;;;;;6.30;0.88;;;16.50;90.20;;;;;;5070325;28;20021;-62
2022/07/14 02:25:43;;;;;;;2.55;0.75;;;16.40;90.30;;;;;;5066150;28;20016;-62
2022/07/14 02:28:09;;;;;;;4.45;1.00;;;16.40;90.30;;;;;;5070046;28;20679;-61
2022/07/14 02:30:34;;;;;;;5.40;0.88;;;16.40;90.40;;;;;;5069986;28;20040;-62
2022/07/14 02:33:00;;;;;;;4.78;0.88;;;16.30;90.40;;;;;;5068031;28;20111;-62
2022/07/14 02:35:26;;;;;;;6.60;1.00;;;16.30;90.50;;;;;;5070102;28;20028;-62
2022/07/14 02:37:52;;;;;;;4.13;0.95;;;16.30;90.60;;;;;;5066687;28;20021;-61
2022/07/14 02:40:18;;;;;;;4.38;1.98;;;16.30;90.70;;;;;;5051421;28;20044;-61
2022/07/14 02:42:43;;;;;;;2.70;0.80;;;16.20;90.80;;;;;;5066040;28;20024;-61
2022/07/14 02:45:09;;;;;;;4.35;0.90;;;16.10;90.80;;;;;;5068913;28;20531;-62
2022/07/14 02:47:35;;;;;;;5.15;0.80;;;16.10;90.90;;;;;;5069764;28;20507;-61
2022/07/14 02:50:01;;;;;;;7.30;1.10;;;16.10;91.00;;;;;;5069113;28;20060;-61
2022/07/14 02:52:26;;;;;;;6.07;1.05;;;16.10;91.00;;;;;;5064688;28;20095;-61
2022/07/14 02:54:52;;;;;;;5.10;0.95;;;16.00;91.10;;;;;;5068866;28;20040;-61
2022/07/14 02:57:17;;;;;;;2.88;0.90;;;16.00;91.10;;;;;;5068188;28;20040;-61
2022/07/14 02:59:43;;;;;;;3.97;0.80;;;16.00;91.20;;;;;;5068458;28;20434;-61
2022/07/14 03:02:09;;;;;;;4.45;1.17;;;16.00;91.20;;;;;;5067324;28;20016;-61
2022/07/14 03:04:35;;;;;;;3.97;0.85;;;15.90;91.30;;;;;;5070471;28;20028;-61
2022/07/14 03:07:01;;;;;;;4.65;0.93;;;15.90;91.30;;;;;;5068716;28;20031;-61
2022/07/14 03:09:27;;;;;;;3.08;0.70;;;15.80;91.30;;;;;;5067870;28;20064;-61
2022/07/14 03:11:53;;;;;;;4.38;0.82;;;15.70;91.40;;;;;;5081182;28;20409;-61
2022/07/14 03:14:18;;;;;;;4.60;1.00;;;15.70;91.50;;;;;;5068707;28;20021;-61
2022/07/14 03:16:44;;;;;;;1.90;0.50;;;15.60;91.60;;;;;;5066849;28;20036;-61
2022/07/14 03:19:10;;;;;;;4.80;0.80;;;15.60;91.70;;;;;;5067793;28;20051;-61
2022/07/14 03:21:35;;;;;;;2.22;0.70;;;15.50;91.70;;;;;;5066519;28;20457;-61
2022/07/14 03:24:01;;;;;;;3.63;0.90;;;15.40;91.70;;;;;;5067534;28;20491;-61
2022/07/14 03:26:28;;;;;;;4.40;0.90;;;15.40;91.80;;;;;;5066640;28;20013;-61
2022/07/14 03:28:54;;;;;;;5.72;1.00;;;15.40;91.90;;;;;;5068774;28;20475;-62
2022/07/14 03:31:19;;;;;;;3.65;1.00;;;15.30;91.90;;;;;;5065903;28;20033;-62
2022/07/14 03:33:45;;;;;;;4.00;1.15;;;15.30;91.90;;;;;;5069008;28;20032;-62
2022/07/14 03:36:11;;;;;;;3.53;1.35;;;15.20;92.00;;;;;;5068155;28;20021;-61
2022/07/14 03:38:36;;;;;;;3.78;1.00;;;15.20;91.90;;;;;;5067532;28;20090;-61
2022/07/14 03:41:03;;;;;;;3.63;1.00;;;15.20;92.00;;;;;;5063401;28;20169;-62
2022/07/14 03:43:29;;;;;;;3.28;0.90;;;15.20;92.00;;;;;;5069122;28;20028;-61
2022/07/14 03:45:55;;;;;;;5.75;0.90;;;15.20;92.10;;;;;;5066845;28;20021;-61
2022/07/14 03:48:21;;;;;;;4.40;0.90;;;15.10;92.10;;;;;;5067311;28;20035;-62
2022/07/14 03:50:48;;;;;;;3.97;1.00;;;15.10;92.10;;;;;;5066804;28;20024;-62
2022/07/14 03:53:14;;;;;;;4.13;1.00;;;15.10;92.10;;;;;;5068401;28;20016;-61
2022/07/14 03:55:41;;;;;;;3.22;0.98;;;15.00;92.10;;;;;;5068231;28;20502;-61
2022/07/14 03:58:07;;;;;;;4.13;0.90;;;15.00;92.10;;;;;;5066518;28;20515;-62
2022/07/14 04:00:33;;;;;;;2.85;1.00;;;15.00;92.20;;;;;;5064501;28;20032;-62
2022/07/14 04:02:58;;;;;;;2.80;0.70;;;14.90;92.20;;;;;;5067905;28;20475;-61
2022/07/14 04:05:24;;;;;;;3.33;0.80;;;14.90;92.30;;;;;;5082464;28;20021;-61
2022/07/14 04:07:50;;;;;;;3.25;0.90;;;14.90;92.30;;;;;;5067600;28;20036;-61
2022/07/14 04:10:15;;;;;;;4.05;0.90;;;14.90;92.30;;;;;;5067379;28;20032;-62
2022/07/14 04:12:41;;;;;;;3.75;0.88;;;14.80;92.30;;;;;;5067645;28;20024;-61
2022/07/14 04:15:07;;;;;;;4.45;1.17;;;14.80;92.40;;;;;;5067623;28;20029;-62
2022/07/14 04:17:32;;;;;;;2.22;0.80;;;14.80;92.50;;;;;;5067007;28;20021;-62
2022/07/14 04:19:58;;;;;;;4.07;1.10;;;14.80;92.60;;;;;;5066618;28;20139;-61
2022/07/14 04:22:23;;;;;;;3.03;0.80;;;14.80;92.60;;;;;;5067127;28;20032;-61
2022/07/14 04:24:49;;;;;;;3.63;1.33;;;14.80;92.60;;;;;;5067210;28;20442;-61
2022/07/14 04:27:14;;;;;;;2.42;0.80;;;14.70;92.60;;;;;;5065513;28;20520;-62
2022/07/14 04:29:40;;;;;;;3.60;1.23;;;14.80;92.70;;;;;;5065997;28;20037;-62
2022/07/14 04:32:07;;;;;;;3.47;0.82;;;14.80;92.70;;;;;;5065785;28;20024;-61
2022/07/14 04:34:34;;;;;;;3.30;0.85;;;14.80;92.70;;;;;;5067251;28;20039;-62
2022/07/14 04:37:00;;;;;;;2.83;0.75;;;14.80;92.80;;;;;;5067074;28;20098;-61
2022/07/14 04:39:25;;;;;;;3.85;1.05;;;14.80;92.90;;;;;;5066524;28;20432;-61
2022/07/14 04:41:51;;;;;;;3.08;1.00;;;14.80;92.90;;;;;;5066755;28;20028;-61
2022/07/14 04:44:17;;;;;;;3.40;1.15;;;14.80;92.90;;;;;;5065936;28;20103;-61
2022/07/14 04:46:43;;;;;;;2.85;0.82;;;14.80;92.90;;;;;;5068256;28;20029;-62
2022/07/14 04:52:01;;;;;;;3.65;1.00;;;14.90;93.00;;;;;;5066492;28;20030;-62
2022/07/14 04:54:27;;;;;;;2.35;0.90;;;14.90;93.10;;;;;;5085324;28;20040;-62
2022/07/14 04:56:52;;;;;;;2.95;0.82;;;14.90;93.10;;;;;;5070865;28;20044;-61
2022/07/14 04:59:18;;;;;;;3.95;1.45;;;14.90;93.20;;;;;;5071974;28;20027;-61
2022/07/14 05:01:44;;;;;;;2.70;1.00;;;15.00;93.20;;;;;;5068745;28;20396;-62
2022/07/14 05:04:09;;;;;;;3.85;1.10;;;15.00;93.30;;;;;;5069867;28;20017;-61
2022/07/14 05:06:35;;;;;;;4.18;1.10;;;15.10;93.40;;;;;;5071457;28;20096;-61
2022/07/14 05:09:01;;;;;;;3.95;1.05;;;15.10;93.40;;;;;;5067820;28;20012;-61
2022/07/14 05:11:27;;;;;;;5.05;1.00;;;15.10;93.50;;;;;;5070258;28;20543;-61
2022/07/14 05:13:53;;;;;;;4.80;1.05;;;15.20;93.60;;;;;;5074571;28;20028;-61
2022/07/14 05:16:19;;;;;;;5.10;1.65;;;15.20;93.70;;;;;;5068052;28;20021;-61
2022/07/14 05:18:44;;;;;;;5.15;1.42;;;15.20;93.80;;;;;;5062332;28;20036;-61
2022/07/14 05:21:10;;;;;;;5.65;1.05;;;15.20;93.90;;;;;;5064065;28;20043;-61
2022/07/14 05:23:36;;;;;;;6.45;1.30;;;15.20;94.00;;;;;;5062285;28;20032;-61
2022/07/14 05:26:02;;;;;;;7.07;1.60;;;15.30;94.10;;;;;;5063900;28;20017;-61
2022/07/14 05:28:27;;;;;;;4.32;1.15;;;15.30;94.10;;;;;;5063127;28;20032;-61
2022/07/14 05:30:57;;;;;;;4.97;0.82;;;15.30;94.20;;;;;;5070874;28;20028;-61
2022/07/14 05:33:22;;;;;;;2.13;0.80;;;15.40;94.20;;;;;;5073872;28;20020;-61
2022/07/14 05:35:48;;;;;;;6.05;1.90;;;15.40;94.20;;;;;;5057455;28;20100;-61
2022/07/14 05:38:14;;;;;;;6.95;1.60;;;15.40;94.30;;;;;;5085661;28;20024;-62
2022/07/14 05:40:39;;;;;;;4.93;1.15;;;15.40;94.40;;;;;;5065582;28;20033;-61
2022/07/14 05:43:05;;;;;;;4.78;0.90;;;15.50;94.40;;;;;;5070652;28;20021;-61
2022/07/14 05:45:30;;;;;;;5.03;1.20;;;15.50;94.40;;;;;;5065286;28;20083;-61
2022/07/14 05:47:56;;;;;;;4.55;1.00;;;15.60;94.50;;;;;;5062548;28;20035;-62
2022/07/14 05:50:21;;;;;;;4.55;1.30;;;15.60;94.60;;;;;;5069743;28;20111;-62
2022/07/14 05:52:47;;;;;;;5.18;1.05;;;15.60;94.70;;;;;;5070468;28;20033;-62
2022/07/14 05:55:12;;;;;;;8.75;1.67;;;15.60;94.70;;;;;;5069985;28;20485;-62
2022/07/14 05:57:38;;;;;;;3.50;1.23;;;15.70;94.80;;;;;;5069203;28;20048;-62
2022/07/14 06:00:05;;;;;;;5.10;1.48;;;15.70;94.80;;;;;;5074200;28;20062;-61
2022/07/14 06:02:31;;;;;;;4.60;1.20;;;15.80;94.90;;;;;;5065250;28;20032;-61
2022/07/14 06:04:56;;;;;;;4.50;1.20;;;15.80;95.00;;;;;;5062586;28;20017;-61
2022/07/14 06:07:22;;;;;;;8.18;1.77;;;15.80;95.00;;;;;;5071433;28;20464;-61
2022/07/14 06:09:49;;;;;;;5.07;1.10;;;15.90;95.10;;;;;;5059437;28;20017;-61
2022/07/14 06:12:15;;;;;;;4.00;1.15;;;15.90;95.10;;;;;;5065233;28;20025;-61
2022/07/14 06:14:43;;;;;;;5.10;1.20;;;15.90;95.10;;;;;;5055084;28;20047;-62
2022/07/14 06:17:09;;;;;;;3.85;1.23;;;16.00;95.10;;;;;;5060520;28;20021;-61
2022/07/14 06:19:35;;;;;;;4.63;1.08;;;16.10;95.10;;;;;;5074913;28;20074;-61
2022/07/14 06:22:05;;;;;;;8.68;1.65;;;16.10;95.10;;;;;;5070057;28;20052;-62
2022/07/14 06:24:31;;;;;;;10.13;1.60;;;16.20;95.10;;;;;;5055084;28;20506;-61
2022/07/14 06:26:57;;;;;;;7.10;1.40;;;16.20;95.10;;;;;;5070644;28;20432;-62
2022/07/14 06:29:22;;;;;;;6.50;1.58;;;16.30;95.10;;;;;;5056830;28;20025;-62
2022/07/14 06:31:49;;;;;;;7.18;1.40;;;16.30;95.00;;;;;;5069291;28;20020;-61
2022/07/14 06:34:15;;;;;;;7.63;1.65;;;16.40;94.90;;;;;;5073406;28;20484;-61
2022/07/14 06:36:40;;;;;;;10.25;1.80;;;16.40;94.70;;;;;;5063148;28;20114;-62
2022/07/14 06:39:06;;;;;;;6.50;1.60;;;16.50;94.60;;;;;;5058663;28;20039;-61
2022/07/14 06:41:31;;;;;;;8.32;1.48;;;16.50;94.50;;;;;;5064969;28;20029;-62
2022/07/14 06:43:57;;;;;;;10.25;1.73;;;16.50;94.30;;;;;;5063614;28;20427;-61
2022/07/14 06:46:22;;;;;;;5.38;1.40;;;16.60;94.00;;;;;;5066029;28;20020;-62
2022/07/14 06:48:48;;;;;;;5.90;1.38;;;16.60;93.90;;;;;;5063820;28;20017;-61
2022/07/14 06:51:14;;;;;;;9.85;1.70;;;16.70;93.80;;;;;;5058276;28;20032;-61
2022/07/14 06:53:40;;;;;;;6.03;1.67;;;16.70;93.70;;;;;;5060221;28;20542;-62
2022/07/14 06:56:05;;;;;;;7.32;1.40;;;16.80;93.60;;;;;;5063730;28;20025;-61
2022/07/14 06:58:32;;;;;;;4.97;1.20;;;16.80;93.40;;;;;;5063167;28;20388;-61
2022/07/14 07:00:58;;;;;;;9.57;1.40;;;16.90;93.40;;;;;;5054043;28;20021;-61
2022/07/14 07:03:23;;;;;;;7.18;1.48;;;16.90;93.40;;;;;;5058465;28;20040;-62
2022/07/14 07:08:33;;;;;;;6.75;1.13;;;17.00;93.30;;;;;;5066831;28;20396;-62
2022/07/14 07:10:59;;;;;;;5.22;1.00;;;17.10;93.10;;;;;;5058606;28;20025;-62
2022/07/14 07:13:27;;;;;;;4.70;0.80;;;17.10;93.00;;;;;;5058489;28;20021;-61
2022/07/14 07:15:53;;;;;;;3.53;0.68;;;17.20;92.90;;;;;;5072917;28;20079;-61
2022/07/14 07:18:19;;;;;;;5.25;0.80;;;17.30;92.80;;;;;;5054905;28;20025;-62
2022/07/14 07:20:44;;;;;;;4.57;0.65;;;17.30;92.60;;;;;;5055057;28;20029;-62
2022/07/14 07:23:10;;;;;;;5.88;1.40;;;17.50;92.50;;;;;;5059823;28;20048;-62
2022/07/14 07:25:36;;;;;;;5.63;1.38;;;17.50;92.30;;;;;;5058892;28;20028;-62
2022/07/14 07:28:02;;;;;;;5.43;0.90;;;17.60;92.10;;;;;;5057987;28;20064;-62
2022/07/14 07:30:28;;;;;;;6.72;0.75;;;17.70;91.80;;;;;;5067945;28;20428;-62
2022/07/14 07:32:54;;;;;;;4.53;0.70;;;17.70;91.80;;;;;;5064212;28;20024;-61
2022/07/14 07:35:20;;;;;;;5.18;1.10;;;17.80;91.70;;;;;;5061458;28;20389;-61
2022/07/14 07:37:46;;;;;;;8.07;1.17;;;17.80;91.60;;;;;;5070057;28;20102;-61
2022/07/14 07:40:12;;;;;;;4.82;1.10;;;17.90;91.30;;;;;;5069733;28;20020;-61
2022/07/14 07:42:38;;;;;;;3.60;1.00;;;17.90;90.80;;;;;;5066190;28;20048;-61
2022/07/14 07:45:04;;;;;;;6.55;1.23;;;18.00;90.80;;;;;;5070004;28;20468;-61
2022/07/14 07:47:29;;;;;;;5.90;0.80;;;18.10;90.80;;;;;;5066542;28;20096;-61
2022/07/14 07:49:55;;;;;;;6.93;2.08;;;18.20;90.70;;;;;;5069850;28;20174;-61
2022/07/14 07:52:21;;;;;;;4.45;0.70;;;18.20;90.60;;;;;;5066655;28;20028;-61
2022/07/14 07:54:47;;;;;;;3.67;0.65;;;18.30;90.50;;;;;;5069721;28;20048;-61
2022/07/14 07:57:13;;;;;;;3.92;0.90;;;18.40;90.30;;;;;;5065914;28;20049;-61
2022/07/14 07:59:39;;;;;;;5.38;0.60;;;18.50;90.10;;;;;;5070752;28;20377;-62
2022/07/14 08:02:05;;;;;;;7.03;0.90;;;18.50;90.00;;;;;;5070684;28;20025;-61
2022/07/14 08:04:33;;;;;;;5.45;1.00;;;18.60;89.50;;;;;;5058477;28;20053;-62
2022/07/14 08:06:59;;;;;;;5.07;0.80;;;18.70;88.90;;;;;;5054920;28;20012;-62
2022/07/14 08:09:25;;;;;;;2.95;0.50;;;18.70;89.00;;;;;;5057059;28;20027;-62
2022/07/14 08:11:50;;;;;;;6.45;1.10;;;18.80;88.10;;;;;;5061887;28;20465;-62
2022/07/14 08:17:01;;;;;;;3.58;0.80;;;18.90;87.20;;;;;;5065744;28;20039;-62
2022/07/14 08:19:27;;;;;;;3.92;0.80;;;19.00;87.00;;;;;;5065380;28;20444;-62
2022/07/14 08:21:53;;;;;;;3.55;0.60;;;19.10;86.40;;;;;;5066814;28;20465;-62
2022/07/14 08:24:19;;;;;;;4.35;1.08;;;19.20;86.40;;;;;;5066773;28;20025;-62
2022/07/14 08:26:46;;;;;;;5.55;0.98;;;19.30;86.30;;;;;;5063253;28;20027;-62
2022/07/14 08:29:12;;;;;;;3.13;0.60;;;19.30;86.10;;;;;;5063028;28;20415;-62
2022/07/14 08:31:37;;;;;;;3.55;0.60;;;19.40;85.70;;;;;;5072352;28;20036;-62
2022/07/14 08:34:03;;;;;;;4.53;0.70;;;19.50;85.00;;;;;;5058782;28;20028;-62
2022/07/14 08:36:29;;;;;;;3.60;0.65;;;19.50;84.50;;;;;;5064383;28;20080;-62
2022/07/14 08:38:55;;;;;;;4.70;1.40;;;19.60;83.60;;;;;;5066600;28;20078;-62
2022/07/14 08:41:21;;;;;;;3.20;0.55;;;19.60;83.10;;;;;;5070915;28;20115;-62
2022/07/14 08:43:48;;;;;;;4.25;0.40;;;19.70;83.00;;;;;;5069904;28;20493;-62
2022/07/14 08:46:15;;;;;;;5.32;0.90;;;19.80;83.00;;;;;;5071614;28;20381;-62
2022/07/14 08:48:41;;;;;;;4.05;0.70;;;19.80;82.70;;;;;;5071311;28;20033;-62
2022/07/14 08:51:07;;;;;;;2.38;0.52;;;19.90;82.50;;;;;;5071652;28;20512;-62
2022/07/14 08:53:33;;;;;;;2.60;0.60;;;20.00;81.40;;;;;;5071413;28;20171;-62
2022/07/14 08:55:59;;;;;;;3.88;0.73;;;20.10;80.90;;;;;;5068975;28;20021;-62
2022/07/14 08:58:25;;;;;;;2.88;0.57;;;20.20;80.70;;;;;;5058510;28;20481;-62
2022/07/14 09:00:51;;;;;;;2.28;0.50;;;20.20;80.30;;;;;;5057971;28;20035;-62
2022/07/14 09:03:16;;;;;;;4.38;0.80;;;20.30;80.30;;;;;;5053347;28;20110;-62
2022/07/14 09:05:44;;;;;;;5.93;1.17;;;20.30;79.20;;;;;;5055397;28;20025;-62
2022/07/14 09:08:11;;;;;;;3.58;0.90;;;20.40;79.10;;;;;;5066804;28;20491;-61
2022/07/14 09:10:39;;;;;;;2.92;0.80;;;20.40;78.10;;;;;;5057970;28;20052;-62
2022/07/14 09:13:21;;;;;;;2.83;0.70;;;20.50;78.30;;;;;;5067112;28;20540;-62
2022/07/14 09:15:48;;;;;;;3.25;0.70;;;20.60;77.60;;;;;;5065004;28;20024;-62
2022/07/14 09:18:21;;;;;;;2.00;0.68;;;20.70;77.40;;;;;;5063590;28;20107;-62
2022/07/14 09:20:48;;;;;;;4.07;0.60;;;20.80;77.20;;;;;;5052514;28;20025;-62
2022/07/14 09:23:14;;;;;;;4.20;0.98;;;20.90;77.00;;;;;;5057987;28;20025;-61
2022/07/14 09:25:40;;;;;;;3.25;0.70;;;20.90;75.10;;;;;;5062421;28;20067;-62
2022/07/14 09:28:06;;;;;;;3.83;1.08;;;21.00;75.00;;;;;;5068902;28;20489;-62
2022/07/14 09:30:33;;;;;;;3.15;0.80;;;21.10;72.60;;;;;;5068509;28;20488;-62
2022/07/14 09:33:03;;;;;;;3.17;0.60;;;21.10;73.10;;;;;;5056775;28;20520;-62
2022/07/14 09:35:33;;;;;;;1.77;0.50;;;21.20;73.40;;;;;;5062631;28;20028;-61
2022/07/14 09:37:58;;;;;;;2.72;0.40;;;21.30;73.20;;;;;;5058283;28;20025;-62
2022/07/14 09:40:28;;;;;;;2.38;0.68;;;21.40;73.10;;;;;;5067747;28;20081;-62
2022/07/14 09:43:02;;;;;;;2.72;0.40;;;21.50;72.60;;;;;;5082513;28;20499;-62
2022/07/14 09:45:36;;;;;;;3.13;0.60;;;21.60;72.10;;;;;;5061690;28;20995;-62
2022/07/14 09:48:11;;;;;;;3.35;0.47;;;21.70;72.10;;;;;;5063753;28;20016;-62
2022/07/14 09:50:45;;;;;;;1.17;0.38;;;21.80;71.50;;;;;;5065322;28;20455;-61
2022/07/14 09:53:18;;;;;;;3.40;0.60;;;21.80;71.30;;;;;;5078800;28;20024;-62
2022/07/14 09:55:48;;;;;;;2.40;0.52;;;21.90;69.30;;;;;;5074705;28;20032;-61
2022/07/14 09:58:14;;;;;;;2.33;0.47;;;22.00;69.60;;;;;;5072270;28;20075;-61
2022/07/14 10:00:43;;;;;;;2.33;0.45;;;22.10;69.90;;;;;;5074869;28;20060;-62
2022/07/14 10:03:09;;;;;;;2.03;0.50;;;22.20;69.40;;;;;;5080105;28;20490;-62
2022/07/14 10:05:35;;;;;;;1.90;0.73;;;22.40;68.70;;;;;;5071260;28;20032;-62
2022/07/14 10:08:04;;;;;;;2.42;0.68;;;22.50;68.00;;;;;;5069947;28;20526;-62
2022/07/14 10:10:35;;;;;;;1.88;0.50;;;22.50;67.80;;;;;;5070351;28;20032;-62
2022/07/14 10:13:02;;;;;;;3.20;0.60;;;22.60;67.10;;;;;;5067842;28;20023;-62
2022/07/14 10:15:29;;;;;;;3.17;0.50;;;22.70;66.90;;;;;;5054244;28;20021;-61
2022/07/14 10:17:56;;;;;;;1.67;0.50;;;22.80;66.20;;;;;;5067094;28;20017;-61
2022/07/14 10:20:22;;;;;;;3.60;0.60;;;22.90;65.90;;;;;;5067059;28;20027;-62
2022/07/14 10:22:50;;;;;;;3.67;0.60;;;23.00;65.90;;;;;;5072296;28;20095;-62
2022/07/14 10:25:16;;;;;;;2.28;0.60;;;23.10;65.60;;;;;;5066408;28;20031;-61
2022/07/14 10:27:43;;;;;;;4.00;0.70;;;23.10;65.00;;;;;;5066905;28;20107;-62
2022/07/14 10:30:10;;;;;;;2.17;0.50;;;23.20;65.20;;;;;;5075085;28;20027;-62
2022/07/14 10:33:00;;;;;;;3.88;0.60;;;23.40;64.60;;;;;;5072334;28;20023;-62
2022/07/14 10:36:10;;;;;;;3.17;0.60;;;23.50;63.60;;;;;;5056763;28;20032;-62
2022/07/14 10:38:59;;;;;;;4.03;0.68;;;23.50;62.60;;;;;;5054365;28;20067;-62
2022/07/14 10:41:55;;;;;;;2.67;0.40;;;23.60;62.40;;;;;;5062597;28;20039;-62
2022/07/14 10:44:27;;;;;;;1.20;0.40;;;23.70;61.60;;;;;;5054608;28;20496;-62
2022/07/14 10:47:09;;;;;;;3.38;0.40;;;23.70;61.40;;;;;;5067932;28;20120;-62
2022/07/14 10:50:01;;;;;;;2.88;0.68;;;23.90;61.00;;;;;;5063261;28;20358;-62
2022/07/14 10:52:31;;;;;;;2.15;0.60;;;24.00;61.10;;;;;;5054623;28;20107;-62
2022/07/14 10:55:19;;;;;;;2.40;0.50;;;24.00;60.70;;;;;;5055619;28;20059;-62
2022/07/14 10:57:59;;;;;;;2.10;0.50;;;24.20;59.80;;;;;;5054991;28;20044;-62
2022/07/14 11:00:55;;;;;;;2.25;0.50;;;24.30;59.00;;;;;;5061221;28;20016;-62
2022/07/14 11:03:38;;;;;;;2.17;0.68;;;24.40;58.60;;;;;;5059336;28;20017;-62
2022/07/14 11:06:05;;;;;;;1.52;0.60;;;24.40;58.20;;;;;;5056434;28;20028;-62
2022/07/14 11:08:51;;;;;;;4.45;1.17;;;24.60;58.20;;;;;;5056684;28;20013;-62
2022/07/14 11:11:23;;;;;;;5.28;0.90;;;24.70;57.50;;;;;;5056879;28;20031;-62
2022/07/14 11:14:00;;;;;;;2.55;0.75;;;24.90;57.40;;;;;;5055684;28;20029;-62
2022/07/14 11:16:47;;;;;;;4.35;0.68;;;25.10;56.70;;;;;;5059927;28;20132;-62
2022/07/14 11:19:31;;;;;;;2.20;0.38;;;25.40;56.60;;;;;;5071764;28;20545;-62
2022/07/14 11:25:27;;;;;;;4.45;0.57;;;25.60;56.00;;;;;;5060346;28;20405;-62
2022/07/14 11:27:53;;;;;;;3.20;0.70;;;25.80;56.00;;;;;;5058877;28;20023;-62
2022/07/14 11:30:25;;;;;;;2.28;0.50;;;26.00;55.90;;;;;;5069020;28;20103;-62
2022/07/14 11:33:03;;;;;;;2.97;0.60;;;26.20;55.00;;;;;;5055335;28;20020;-62
2022/07/14 11:38:31;;;;;;;1.83;0.50;;;26.40;53.20;;;;;;5054257;28;20028;-62
2022/07/14 11:41:12;;;;;;;;;;;;;;;;;;;;;
2022/07/14 11:43:48;;;;;;;1.65;0.30;;;26.80;53.50;;;;;;5057652;28;20036;-62
2022/07/14 11:46:16;;;;;;;1.65;0.60;;;27.20;53.50;;;;;;5063896;28;20017;-62
2022/07/14 11:48:48;;;;;;;0.63;0.30;;;27.50;53.10;;;;;;5062459;28;20040;-62
2022/07/14 11:51:25;;;;;;;4.70;0.70;;;27.80;52.50;;;;;;5053244;28;20028;-62
2022/07/14 11:53:56;;;;;;;3.58;0.50;;;27.80;50.40;;;;;;5053379;28;20025;-62
2022/07/14 11:56:24;;;;;;;1.63;0.60;;;27.50;50.00;;;;;;5059957;28;20079;-62
2022/07/14 11:58:51;;;;;;;2.65;0.45;;;27.50;50.50;;;;;;5065833;28;20035;-63
2022/07/14 12:01:18;;;;;;;1.35;0.50;;;27.60;50.90;;;;;;5065364;28;20021;-62
2022/07/14 12:03:44;;;;;;;2.30;0.50;;;27.80;50.90;;;;;;5063796;28;20448;-62
2022/07/14 12:06:10;;;;;;;2.00;0.80;;;27.80;50.90;;;;;;5059315;28;20024;-62
2022/07/14 12:08:46;;;;;;;3.33;0.40;;;27.80;50.60;;;;;;5061636;28;20104;-62
2022/07/14 12:11:14;;;;;;;5.78;0.65;;;27.90;50.90;;;;;;5058837;28;20037;-62
2022/07/14 12:14:18;;;;;;;2.92;0.40;;;28.00;50.60;;;;;;5054763;28;20029;-62
2022/07/14 12:16:44;;;;;;;3.10;0.73;;;28.30;50.60;;;;;;5052301;28;20037;-62
2022/07/14 12:19:11;;;;;;;2.97;0.57;;;28.40;50.20;;;;;;5052582;28;20380;-62
2022/07/14 12:21:37;;;;;;;3.22;0.70;;;28.60;50.20;;;;;;5052160;28;20031;-63
2022/07/14 12:24:04;;;;;;;2.80;0.50;;;28.60;50.10;;;;;;5057781;28;20028;-62
2022/07/14 12:26:30;;;;;;;2.15;0.60;;;28.60;49.70;;;;;;5064985;28;20379;-64
2022/07/14 12:28:59;;;;;;;4.07;0.70;;;28.50;49.60;;;;;;5056945;28;20464;-63
2022/07/14 12:31:26;;;;;;;2.38;0.50;;;28.40;49.80;;;;;;5066668;28;20112;-62
2022/07/14 12:34:28;;;;;;;1.55;0.40;;;28.20;49.70;;;;;;5060206;28;20032;-62
2022/07/14 12:36:59;;;;;;;1.30;0.40;;;28.10;49.80;;;;;;5057364;28;20025;-62
2022/07/14 12:39:26;;;;;;;2.70;0.50;;;28.10;49.90;;;;;;5057786;28;20056;-62
2022/07/14 12:42:19;;;;;;;3.20;0.77;;;28.00;49.60;;;;;;5063465;28;20037;-63
2022/07/14 12:45:00;;;;;;;2.60;0.40;;;28.00;50.00;;;;;;5064556;28;20107;-62
2022/07/14 12:47:48;;;;;;;2.35;0.68;;;28.10;50.00;;;;;;5081429;28;20456;-62
2022/07/14 12:50:24;;;;;;;2.20;0.50;;;27.90;49.30;;;;;;5066264;28;20028;-62
2022/07/14 12:52:55;;;;;;;2.67;0.50;;;27.90;49.40;;;;;;5057601;28;20135;-62
2022/07/14 12:55:44;;;;;;;2.00;0.45;;;28.00;49.70;;;;;;5049671;28;20024;-63
2022/07/14 12:58:12;;;;;;;5.32;0.60;;;28.30;49.80;;;;;;5067572;28;20053;-62
2022/07/14 13:00:42;;;;;;;2.58;0.60;;;28.20;49.40;;;;;;5065964;28;20029;-62
2022/07/14 13:03:14;;;;;;;3.53;0.65;;;28.30;49.50;;;;;;5066888;28;20388;-62
2022/07/14 13:06:06;;;;;;;5.78;0.70;;;28.30;49.70;;;;;;5067488;28;20028;-62
2022/07/14 13:08:37;;;;;;;3.03;0.52;;;28.40;49.50;;;;;;5054380;28;20040;-62
2022/07/14 13:11:13;;;;;;;4.68;0.50;;;28.50;49.20;;;;;;5061654;28;20036;-62